createdAt,value
2018-10-16T00:01:42.740Z,54.27
2018-10-16T00:03:44.726Z,50.17
2018-10-16T00:05:46.770Z,51.08
2018-10-16T00:07:48.784Z,48.60
2018-10-16T00:09:50.757Z,49.08
2018-10-16T00:11:52.787Z,50.58
2018-10-16T00:13:54.793Z,48.28
2018-10-16T00:15:56.775Z,49.98
2018-10-16T00:17:58.824Z,47.45
2018-10-16T00:20:00.807Z,47.70
2018-10-16T00:22:02.846Z,48.90
2018-10-16T00:24:04.813Z,47.60
2018-10-16T00:26:06.864Z,46.85
2018-10-16T00:28:08.880Z,48.42
2018-10-16T00:30:10.866Z,49.27
2018-10-16T00:32:12.857Z,47.85
2018-10-16T00:34:14.911Z,44.67
2018-10-16T00:36:16.904Z,47.90
2018-10-16T00:38:18.872Z,46.73
2018-10-16T00:40:20.883Z,44.38
2018-10-16T00:42:22.947Z,46.60
2018-10-16T00:44:24.937Z,45.38
2018-10-16T00:46:27.061Z,44.95
2018-10-16T00:48:29.003Z,46.13
2018-10-16T00:50:31.000Z,42.95
2018-10-16T00:52:32.993Z,45.48
2018-10-16T00:54:34.974Z,43.83
2018-10-16T00:56:37.043Z,43.73
2018-10-16T00:58:39.059Z,43.87
2018-10-16T01:00:41.037Z,45.73
2018-10-16T01:02:43.088Z,41.65
2018-10-16T01:04:45.063Z,42.40
2018-10-16T01:06:47.101Z,42.73
2018-10-16T01:08:49.082Z,44.20
2018-10-16T01:10:51.140Z,41.53
2018-10-16T01:12:53.123Z,44.27
2018-10-16T01:14:55.138Z,42.95
2018-10-16T01:16:57.179Z,40.10
2018-10-16T01:18:59.145Z,41.30
2018-10-16T01:21:01.110Z,41.02
2018-10-16T01:23:03.131Z,40.40
2018-10-16T01:25:05.157Z,41.33
2018-10-16T01:27:07.191Z,39.67
2018-10-16T01:29:09.141Z,41.58
2018-10-16T01:31:11.131Z,41.30
2018-10-16T01:33:13.130Z,41.88
2018-10-16T01:35:15.136Z,37.88
2018-10-16T01:37:17.128Z,40.33
2018-10-16T01:39:19.095Z,40.48
2018-10-16T01:41:21.124Z,38.65
2018-10-16T01:43:23.110Z,39.38
2018-10-16T01:45:25.144Z,40.78
2018-10-16T01:47:27.116Z,38.95
2018-10-16T01:49:29.181Z,38.50
2018-10-16T01:51:31.204Z,40.08
2018-10-16T01:53:33.180Z,38.80
2018-10-16T01:55:35.186Z,37.55
2018-10-16T01:57:37.238Z,37.42
2018-10-16T01:59:39.212Z,37.45
2018-10-16T02:01:41.204Z,39.25
2018-10-16T02:03:43.214Z,38.42
2018-10-16T02:05:45.236Z,38.30
2018-10-16T02:07:47.256Z,36.88
2018-10-16T02:09:49.317Z,36.45
2018-10-16T02:11:51.329Z,36.55
2018-10-16T02:13:53.320Z,36.17
2018-10-16T02:15:55.330Z,35.78
2018-10-16T02:17:57.366Z,36.53
2018-10-16T02:19:59.337Z,36.58
2018-10-16T02:22:01.330Z,36.93
2018-10-16T02:24:03.316Z,35.45
2018-10-16T02:26:05.319Z,36.42
2018-10-16T02:28:07.300Z,38.30
2018-10-16T02:30:09.292Z,36.95
2018-10-16T02:32:11.320Z,35.43
2018-10-16T02:34:13.304Z,36.42
2018-10-16T02:36:15.338Z,36.05
2018-10-16T02:38:17.354Z,33.85
2018-10-16T02:40:19.374Z,33.30
2018-10-16T02:42:21.372Z,35.58
2018-10-16T02:44:23.400Z,35.20
2018-10-16T02:46:25.394Z,32.63
2018-10-16T02:48:27.438Z,34.85
2018-10-16T02:50:29.413Z,35.20
2018-10-16T02:52:31.392Z,34.08
2018-10-16T02:54:33.558Z,32.03
2018-10-16T02:56:35.580Z,33.48
2018-10-16T02:58:37.608Z,33.48
2018-10-16T03:00:39.653Z,33.42
2018-10-16T03:02:41.632Z,35.17
2018-10-16T03:04:43.671Z,33.50
2018-10-16T03:06:45.649Z,33.63
2018-10-16T03:08:47.647Z,31.62
2018-10-16T03:10:49.637Z,34.03
2018-10-16T03:12:51.610Z,31.40
2018-10-16T03:14:53.615Z,30.12
2018-10-16T03:16:55.646Z,32.63
2018-10-16T03:18:57.674Z,32.20
2018-10-16T03:20:59.656Z,32.40
2018-10-16T03:23:01.649Z,32.38
2018-10-16T03:25:03.671Z,29.95
2018-10-16T03:27:05.647Z,29.72
2018-10-16T03:29:07.683Z,29.85
2018-10-16T03:31:09.650Z,30.85
2018-10-16T03:33:11.680Z,30.27
2018-10-16T03:35:13.651Z,29.72
2018-10-16T03:37:15.679Z,31.60
2018-10-16T03:39:17.703Z,31.30
2018-10-16T03:41:19.738Z,29.72
2018-10-16T03:43:21.715Z,31.00
2018-10-16T03:45:23.703Z,30.48
2018-10-16T03:47:25.791Z,29.90
2018-10-16T03:49:27.709Z,32.20
2018-10-16T03:51:29.733Z,30.10
2018-10-16T03:53:31.714Z,29.77
2018-10-16T03:55:33.731Z,29.00
2018-10-16T03:57:35.749Z,29.40
2018-10-16T03:59:37.732Z,27.73
2018-10-16T04:01:39.750Z,29.67
2018-10-16T04:03:41.716Z,29.32
2018-10-16T04:05:43.685Z,28.23
2018-10-16T04:07:45.729Z,27.58
2018-10-16T04:09:47.712Z,27.22
2018-10-16T04:11:49.750Z,29.82
2018-10-16T04:13:51.747Z,29.52
2018-10-16T04:15:53.696Z,28.02
2018-10-16T04:17:55.747Z,26.85
2018-10-16T04:19:58.476Z,26.75
2018-10-16T04:22:00.470Z,27.67
2018-10-16T04:24:02.488Z,27.52
2018-10-16T04:26:04.465Z,26.77
2018-10-16T04:28:06.433Z,27.80
2018-10-16T04:30:08.459Z,26.87
2018-10-16T04:32:10.434Z,26.75
2018-10-16T04:34:12.417Z,26.30
2018-10-16T04:36:14.452Z,26.57
2018-10-16T04:38:16.451Z,26.73
2018-10-16T04:40:18.427Z,25.80
2018-10-16T04:42:20.427Z,25.77
2018-10-16T04:44:22.406Z,26.93
2018-10-16T04:46:24.420Z,26.20
2018-10-16T04:48:26.473Z,25.55
2018-10-16T04:50:28.503Z,26.70
2018-10-16T04:52:30.495Z,25.90
2018-10-16T04:54:32.531Z,25.23
2018-10-16T04:56:34.514Z,25.32
2018-10-16T04:58:36.576Z,24.98
2018-10-16T05:00:38.634Z,26.30
2018-10-16T05:02:40.584Z,25.77
2018-10-16T05:04:42.592Z,24.07
2018-10-16T05:06:44.623Z,24.95
2018-10-16T05:08:46.613Z,24.92
2018-10-16T05:10:48.598Z,24.75
2018-10-16T05:12:50.615Z,23.92
2018-10-16T05:14:52.665Z,24.27
2018-10-16T05:16:54.657Z,26.25
2018-10-16T05:18:56.662Z,26.02
2018-10-16T05:20:58.660Z,25.97
2018-10-16T05:23:00.660Z,24.72
2018-10-16T05:25:02.648Z,24.12
2018-10-16T05:27:04.629Z,23.52
2018-10-16T05:29:06.674Z,23.98
2018-10-16T05:31:08.719Z,23.52
2018-10-16T05:33:10.694Z,24.05
2018-10-16T05:35:12.687Z,23.45
2018-10-16T05:37:14.659Z,22.65
2018-10-16T05:39:16.760Z,22.62
2018-10-16T05:41:18.689Z,24.37
2018-10-16T05:43:20.660Z,23.73
2018-10-16T05:45:22.650Z,21.95
2018-10-16T05:47:24.667Z,23.30
2018-10-16T05:49:26.646Z,23.55
2018-10-16T05:51:28.653Z,23.60
2018-10-16T05:53:30.642Z,24.15
2018-10-16T05:55:32.621Z,22.58
2018-10-16T05:57:34.652Z,22.48
2018-10-16T05:59:36.627Z,22.93
2018-10-16T06:01:38.606Z,22.73
2018-10-16T06:03:40.616Z,21.62
2018-10-16T06:05:42.753Z,23.40
2018-10-16T06:07:44.637Z,22.13
2018-10-16T06:09:46.667Z,21.77
2018-10-16T06:11:48.685Z,21.20
2018-10-16T06:13:50.704Z,22.10
2018-10-16T06:15:52.803Z,22.60
2018-10-16T06:17:55.028Z,22.52
2018-10-16T06:19:56.999Z,21.93
2018-10-16T06:21:58.996Z,20.97
2018-10-16T06:24:01.030Z,22.20
2018-10-16T06:26:03.008Z,21.82
2018-10-16T06:28:05.051Z,22.32
2018-10-16T06:30:07.092Z,20.80
2018-10-16T06:32:09.306Z,21.37
2018-10-16T06:34:11.337Z,20.50
2018-10-16T06:36:13.359Z,20.80
2018-10-16T06:38:15.372Z,20.02
2018-10-16T06:40:17.394Z,21.35
2018-10-16T06:42:19.373Z,21.17
2018-10-16T06:44:21.363Z,19.25
2018-10-16T06:46:23.442Z,20.12
2018-10-16T06:48:25.677Z,19.92
2018-10-16T06:50:27.378Z,18.80
2018-10-16T06:52:29.353Z,19.50
2018-10-16T06:54:31.439Z,20.40
2018-10-16T06:56:33.835Z,20.60
2018-10-16T06:58:35.836Z,20.57
2018-10-16T07:00:37.868Z,18.85
2018-10-16T07:02:39.856Z,21.15
2018-10-16T07:04:41.865Z,20.08
2018-10-16T07:06:43.929Z,19.77
2018-10-16T07:08:45.878Z,20.17
2018-10-16T07:10:47.885Z,20.10
2018-10-16T07:12:49.869Z,20.55
2018-10-16T07:14:51.915Z,19.57
2018-10-16T07:16:53.874Z,20.15
2018-10-16T07:18:55.915Z,18.82
2018-10-16T07:20:57.965Z,20.08
2018-10-16T07:22:59.911Z,20.57
2018-10-16T07:25:01.911Z,20.68
2018-10-16T07:27:03.925Z,19.20
2018-10-16T07:29:05.950Z,19.57
2018-10-16T07:31:08.677Z,18.50
2018-10-16T07:33:10.691Z,17.87
2018-10-16T07:35:12.691Z,18.50
2018-10-16T07:37:14.730Z,18.25
2018-10-16T07:39:16.704Z,18.82
2018-10-16T07:41:18.727Z,19.35
2018-10-16T07:43:20.747Z,19.70
2018-10-16T07:45:22.781Z,18.60
2018-10-16T07:47:24.774Z,18.75
2018-10-16T07:49:27.357Z,19.15
2018-10-16T07:51:29.396Z,18.05
2018-10-16T07:53:31.392Z,18.50
2018-10-16T07:55:33.370Z,18.95
2018-10-16T07:57:35.383Z,18.57
2018-10-16T07:59:37.400Z,18.37
2018-10-16T08:01:39.397Z,19.35
2018-10-16T08:03:41.396Z,19.35
2018-10-16T08:05:43.419Z,17.65
2018-10-16T08:07:45.407Z,18.65
2018-10-16T08:09:47.379Z,18.40
2018-10-16T08:11:49.403Z,18.67
2018-10-16T08:13:51.394Z,17.82
2018-10-16T08:15:53.385Z,17.60
2018-10-16T08:17:55.497Z,18.07
2018-10-16T08:19:57.460Z,19.05
2018-10-16T08:21:59.499Z,16.42
2018-10-16T08:24:01.519Z,17.35
2018-10-16T08:26:03.517Z,17.02
2018-10-16T08:28:05.539Z,18.90
2018-10-16T08:30:07.619Z,18.50
2018-10-16T08:32:09.781Z,18.37
2018-10-16T08:34:11.826Z,16.70
2018-10-16T08:36:13.910Z,17.82
2018-10-16T08:38:15.805Z,15.93
2018-10-16T08:40:17.827Z,17.37
2018-10-16T08:42:19.877Z,18.52
2018-10-16T08:44:21.839Z,16.77
2018-10-16T08:46:23.904Z,17.37
2018-10-16T08:48:25.881Z,16.25
2018-10-16T08:50:27.857Z,16.25
2018-10-16T08:52:29.877Z,17.48
2018-10-16T08:54:31.878Z,17.62
2018-10-16T08:56:33.909Z,17.50
2018-10-16T08:58:35.920Z,15.68
2018-10-16T09:00:37.941Z,18.20
2018-10-16T09:02:39.965Z,17.92
2018-10-16T09:04:41.955Z,16.57
2018-10-16T09:06:44.024Z,16.30
2018-10-16T09:08:45.896Z,16.70
2018-10-16T09:10:47.901Z,16.85
2018-10-16T09:12:49.920Z,16.48
2018-10-16T09:14:51.867Z,18.00
2018-10-16T09:16:54.273Z,15.80
2018-10-16T09:18:56.226Z,17.10
2018-10-16T09:20:58.154Z,17.73
2018-10-16T09:23:00.199Z,16.60
2018-10-16T09:25:02.232Z,16.85
2018-10-16T09:27:04.189Z,16.07
2018-10-16T09:29:06.180Z,16.07
2018-10-16T09:31:08.274Z,17.12
2018-10-16T09:33:10.149Z,15.95
2018-10-16T09:35:12.148Z,17.05
2018-10-16T09:37:14.139Z,16.10
2018-10-16T09:39:16.139Z,16.37
2018-10-16T09:41:18.159Z,15.63
2018-10-16T09:43:20.158Z,16.07
2018-10-16T09:45:22.184Z,14.85
2018-10-16T09:47:24.207Z,16.55
2018-10-16T09:49:26.216Z,16.30
2018-10-16T09:51:28.185Z,15.58
2018-10-16T09:53:30.197Z,16.30
2018-10-16T09:55:32.216Z,15.80
2018-10-16T09:57:35.159Z,16.50
2018-10-16T09:59:37.507Z,15.70
2018-10-16T10:01:39.513Z,15.23
2018-10-16T10:03:41.563Z,16.17
2018-10-16T10:05:43.541Z,16.30
2018-10-16T10:07:45.524Z,16.05
2018-10-16T10:09:47.553Z,15.10
2018-10-16T10:11:49.528Z,15.30
2018-10-16T10:13:51.591Z,15.13
2018-10-16T10:15:53.573Z,15.32
2018-10-16T10:17:55.562Z,15.58
2018-10-16T10:19:57.580Z,15.72
2018-10-16T10:21:59.563Z,15.88
2018-10-16T10:24:01.551Z,15.18
2018-10-16T10:26:03.556Z,15.30
2018-10-16T10:28:05.570Z,14.75
2018-10-16T10:30:07.597Z,15.20
2018-10-16T10:32:09.564Z,14.80
2018-10-16T10:34:11.566Z,15.85
2018-10-16T10:36:13.584Z,15.45
2018-10-16T10:38:15.589Z,15.40
2018-10-16T10:40:17.594Z,14.78
2018-10-16T10:42:19.675Z,14.40
2018-10-16T10:44:21.562Z,14.40
2018-10-16T10:46:23.612Z,15.58
2018-10-16T10:48:25.634Z,14.25
2018-10-16T10:50:27.713Z,14.35
2018-10-16T10:52:29.664Z,13.98
2018-10-16T10:54:31.736Z,14.98
2018-10-16T10:56:33.732Z,14.30
2018-10-16T10:58:35.754Z,14.07
2018-10-16T11:00:37.732Z,14.45
2018-10-16T11:02:40.134Z,13.60
2018-10-16T11:04:42.155Z,14.70
2018-10-16T11:06:44.405Z,13.43
2018-10-16T11:08:46.413Z,14.25
2018-10-16T11:10:48.439Z,14.53
2018-10-16T11:12:50.463Z,14.68
2018-10-16T11:14:52.507Z,14.25
2018-10-16T11:16:54.861Z,13.95
2018-10-16T11:18:56.872Z,14.10
2018-10-16T11:20:58.963Z,14.00
2018-10-16T11:23:01.283Z,14.23
2018-10-16T11:25:03.297Z,13.55
2018-10-16T11:27:05.349Z,14.30
2018-10-16T11:29:07.268Z,14.10
2018-10-16T11:31:09.270Z,14.53
2018-10-16T11:33:11.297Z,13.83
2018-10-16T11:35:13.256Z,14.28
2018-10-16T11:37:15.270Z,14.68
2018-10-16T11:39:17.253Z,13.70
2018-10-16T11:41:19.266Z,14.03
2018-10-16T11:43:21.277Z,14.70
2018-10-16T11:45:23.282Z,12.88
2018-10-16T11:47:25.305Z,13.22
2018-10-16T11:49:27.307Z,13.18
2018-10-16T11:51:29.305Z,14.35
2018-10-16T11:53:31.324Z,14.07
2018-10-16T11:55:33.385Z,13.48
2018-10-16T11:57:35.383Z,14.43
2018-10-16T11:59:37.404Z,13.10
2018-10-16T12:01:39.377Z,14.65
2018-10-16T12:03:41.394Z,13.95
2018-10-16T12:05:43.391Z,13.18
2018-10-16T12:07:45.385Z,13.20
2018-10-16T12:09:47.405Z,13.88
2018-10-16T12:11:49.382Z,13.90
2018-10-16T12:13:51.408Z,12.60
2018-10-16T12:15:53.457Z,13.43
2018-10-16T12:17:55.425Z,12.70
2018-10-16T12:19:57.479Z,12.60
2018-10-16T12:21:59.424Z,12.58
2018-10-16T12:24:01.502Z,13.30
2018-10-16T12:26:03.669Z,12.40
2018-10-16T12:28:05.667Z,13.08
2018-10-16T12:30:07.703Z,12.82
2018-10-16T12:32:09.797Z,12.73
2018-10-16T12:34:11.720Z,13.03
2018-10-16T12:36:13.751Z,12.55
2018-10-16T12:38:15.837Z,12.35
2018-10-16T12:40:17.885Z,13.45
2018-10-16T12:42:19.788Z,12.40
2018-10-16T12:44:21.787Z,13.08
2018-10-16T12:46:23.784Z,12.45
2018-10-16T12:48:25.765Z,12.80
2018-10-16T12:50:27.816Z,12.07
2018-10-16T12:52:29.757Z,13.05
2018-10-16T12:54:31.778Z,12.95
2018-10-16T12:56:33.810Z,12.23
2018-10-16T12:58:35.795Z,12.35
2018-10-16T13:00:37.807Z,13.18
2018-10-16T13:02:39.813Z,12.43
2018-10-16T13:04:41.820Z,12.55
2018-10-16T13:06:43.850Z,12.85
2018-10-16T13:08:45.838Z,12.15
2018-10-16T13:10:47.837Z,12.10
2018-10-16T13:12:49.861Z,13.05
2018-10-16T13:14:51.855Z,12.05
2018-10-16T13:16:53.913Z,11.88
2018-10-16T13:18:55.882Z,12.05
2018-10-16T13:20:57.862Z,12.13
2018-10-16T13:23:00.019Z,12.43
2018-10-16T13:25:01.930Z,13.43
2018-10-16T13:27:03.910Z,11.55
2018-10-16T13:29:05.967Z,13.08
2018-10-16T13:31:07.947Z,11.60
2018-10-16T13:33:09.989Z,11.90
2018-10-16T13:35:12.074Z,12.98
2018-10-16T13:37:13.958Z,12.05
2018-10-16T13:39:15.957Z,12.10
2018-10-16T13:41:18.016Z,11.40
2018-10-16T13:43:20.024Z,11.33
2018-10-16T13:45:22.040Z,11.80
2018-10-16T13:47:24.029Z,12.10
2018-10-16T13:49:26.074Z,11.20
2018-10-16T13:51:28.055Z,11.95
2018-10-16T13:53:30.117Z,11.45
2018-10-16T13:55:32.069Z,11.22
2018-10-16T13:57:34.082Z,12.00
2018-10-16T13:59:36.084Z,11.60
2018-10-16T14:01:38.085Z,11.33
2018-10-16T14:03:40.072Z,11.97
2018-10-16T14:05:42.052Z,12.28
2018-10-16T14:07:44.082Z,11.55
2018-10-16T14:09:46.061Z,11.55
2018-10-16T14:11:48.100Z,11.70
2018-10-16T14:13:50.111Z,11.53
2018-10-16T14:15:52.112Z,11.65
2018-10-16T14:17:54.128Z,11.05
2018-10-16T14:19:56.166Z,11.28
2018-10-16T14:21:58.222Z,11.75
2018-10-16T14:24:00.391Z,12.07
2018-10-16T14:26:02.484Z,12.00
2018-10-16T14:28:04.457Z,11.65
2018-10-16T14:30:06.398Z,10.80
2018-10-16T14:32:08.493Z,11.68
2018-10-16T14:34:10.509Z,10.78
2018-10-16T14:36:12.411Z,11.50
2018-10-16T14:38:14.522Z,10.48
2018-10-16T14:40:16.462Z,11.63
2018-10-16T14:42:18.853Z,10.90
2018-10-16T14:44:20.822Z,10.80
2018-10-16T14:46:22.811Z,11.12
2018-10-16T14:48:24.814Z,10.95
2018-10-16T14:50:26.906Z,11.08
2018-10-16T14:52:28.928Z,11.50
2018-10-16T14:54:30.956Z,11.08
2018-10-16T14:56:32.929Z,11.70
2018-10-16T14:58:34.991Z,10.32
2018-10-16T15:00:36.991Z,10.98
2018-10-16T15:02:39.048Z,11.00
2018-10-16T15:04:41.072Z,11.00
2018-10-16T15:06:43.050Z,10.68
2018-10-16T15:08:45.105Z,11.05
2018-10-16T15:10:47.149Z,11.18
2018-10-16T15:12:49.166Z,10.98
2018-10-16T15:14:51.152Z,10.30
2018-10-16T15:16:53.129Z,10.30
2018-10-16T15:18:55.140Z,10.90
2018-10-16T15:20:57.146Z,10.78
2018-10-16T15:22:59.184Z,9.43
2018-10-16T15:25:01.194Z,10.72
2018-10-16T15:27:03.169Z,10.58
2018-10-16T15:29:05.141Z,10.58
2018-10-16T15:31:07.164Z,11.03
2018-10-16T15:33:09.172Z,10.45
2018-10-16T15:35:11.143Z,10.43
2018-10-16T15:37:13.116Z,10.30
2018-10-16T15:39:15.607Z,10.35
2018-10-16T15:41:17.649Z,10.72
2018-10-16T15:43:19.598Z,10.20
2018-10-16T15:45:21.638Z,9.75
2018-10-16T15:47:23.588Z,10.65
2018-10-16T15:49:25.570Z,9.80
2018-10-16T15:51:27.662Z,10.60
2018-10-16T15:53:29.659Z,10.58
2018-10-16T15:55:31.658Z,10.35
2018-10-16T15:57:33.673Z,10.43
2018-10-16T15:59:35.674Z,9.30
2018-10-16T16:01:37.672Z,10.10
2018-10-16T16:03:39.688Z,10.30
2018-10-16T16:05:41.679Z,9.65
2018-10-16T16:07:43.675Z,9.95
2018-10-16T16:09:45.668Z,9.48
2018-10-16T16:11:47.707Z,11.03
2018-10-16T16:13:49.673Z,10.30
2018-10-16T16:15:51.720Z,9.88
2018-10-16T16:17:53.765Z,9.73
2018-10-16T16:19:55.722Z,10.18
2018-10-16T16:21:57.757Z,9.48
2018-10-16T16:23:59.814Z,10.48
2018-10-16T16:26:01.911Z,10.75
2018-10-16T16:28:03.944Z,9.43
2018-10-16T16:30:05.914Z,9.05
2018-10-16T16:32:07.925Z,10.30
2018-10-16T16:34:10.315Z,10.30
2018-10-16T16:36:12.282Z,9.35
2018-10-16T16:38:14.288Z,9.23
2018-10-16T16:40:16.247Z,9.35
2018-10-16T16:42:18.226Z,9.90
2018-10-16T16:44:20.303Z,9.48
2018-10-16T16:46:22.240Z,10.08
2018-10-16T16:48:24.206Z,9.50
2018-10-16T16:50:26.191Z,9.88
2018-10-16T16:52:28.168Z,9.05
2018-10-16T16:54:30.182Z,10.30
2018-10-16T16:56:32.146Z,9.33
2018-10-16T16:58:34.157Z,9.05
2018-10-16T17:00:36.142Z,9.53
2018-10-16T17:02:38.105Z,9.60
2018-10-16T17:04:40.177Z,9.93
2018-10-16T17:06:42.106Z,10.30
2018-10-16T17:08:44.139Z,9.28
2018-10-16T17:10:46.125Z,10.03
2018-10-16T17:12:48.125Z,9.00
2018-10-16T17:14:50.115Z,9.90
2018-10-16T17:16:52.152Z,9.63
2018-10-16T17:18:54.133Z,9.80
2018-10-16T17:20:56.131Z,9.60
2018-10-16T17:22:58.146Z,9.28
2018-10-16T17:25:00.387Z,10.13
2018-10-16T17:27:02.149Z,9.10
2018-10-16T17:29:04.205Z,9.40
2018-10-16T17:31:06.201Z,9.13
2018-10-16T17:33:08.336Z,9.08
2018-10-16T17:35:10.250Z,9.33
2018-10-16T17:37:12.280Z,9.55
2018-10-16T17:39:14.353Z,9.10
2018-10-16T17:41:16.391Z,9.50
2018-10-16T17:43:18.369Z,8.95
2018-10-16T17:45:20.353Z,8.93
2018-10-16T17:47:22.413Z,9.23
2018-10-16T17:49:24.443Z,9.23
2018-10-16T17:51:26.468Z,8.23
2018-10-16T17:53:28.451Z,8.15
2018-10-16T17:55:30.462Z,9.40
2018-10-16T17:57:32.585Z,9.08
2018-10-16T17:59:34.997Z,9.30
2018-10-16T18:01:37.649Z,8.48
2018-10-16T18:03:39.645Z,9.00
2018-10-16T18:05:41.659Z,9.13
2018-10-16T18:07:43.660Z,9.48
2018-10-16T18:09:45.646Z,9.13
2018-10-16T18:11:47.677Z,9.15
2018-10-16T18:13:49.644Z,8.83
2018-10-16T18:15:51.680Z,8.70
2018-10-16T18:17:53.667Z,9.30
2018-10-16T18:19:55.656Z,8.90
2018-10-16T18:21:57.693Z,8.83
2018-10-16T18:23:59.701Z,9.20
2018-10-16T18:26:01.694Z,9.73
2018-10-16T18:28:03.712Z,8.90
2018-10-16T18:30:05.720Z,9.48
2018-10-16T18:32:07.716Z,8.90
2018-10-16T18:34:09.850Z,9.30
2018-10-16T18:36:11.831Z,8.75
2018-10-16T18:38:13.795Z,8.98
2018-10-16T18:40:15.809Z,9.45
2018-10-16T18:42:17.795Z,8.58
2018-10-16T18:44:19.814Z,8.73
2018-10-16T18:46:21.839Z,9.00
2018-10-16T18:48:23.851Z,8.55
2018-10-16T18:50:26.147Z,8.63
2018-10-16T18:52:28.167Z,8.45
2018-10-16T18:54:30.160Z,9.05
2018-10-16T18:56:32.170Z,8.80
2018-10-16T18:58:34.145Z,8.25
2018-10-16T19:00:36.152Z,8.75
2018-10-16T19:02:38.153Z,9.18
2018-10-16T19:04:40.112Z,9.10
2018-10-16T19:06:42.140Z,9.03
2018-10-16T19:08:44.126Z,8.15
2018-10-16T19:10:46.091Z,9.45
2018-10-16T19:12:48.086Z,8.78
2018-10-16T19:14:50.089Z,8.98
2018-10-16T19:16:52.134Z,8.58
2018-10-16T19:18:54.132Z,7.30
2018-10-16T19:20:56.120Z,8.18
2018-10-16T19:22:58.121Z,8.63
2018-10-16T19:25:00.110Z,8.55
2018-10-16T19:27:02.203Z,8.15
2018-10-16T19:29:04.424Z,8.03
2018-10-16T19:31:06.426Z,8.78
2018-10-16T19:33:08.503Z,7.87
2018-10-16T19:35:10.414Z,8.08
2018-10-16T19:37:12.400Z,7.92
2018-10-16T19:39:14.477Z,8.95
2018-10-16T19:41:16.423Z,8.35
2018-10-16T19:43:18.432Z,8.15
2018-10-16T19:45:20.616Z,7.75
2018-10-16T19:47:22.500Z,7.53
2018-10-16T19:49:24.489Z,8.13
2018-10-16T19:51:26.537Z,7.58
2018-10-16T19:53:28.538Z,8.18
2018-10-16T19:55:30.568Z,7.25
2018-10-16T19:57:32.602Z,7.90
2018-10-16T19:59:34.610Z,8.50
2018-10-16T20:01:36.584Z,8.25
2018-10-16T20:03:38.596Z,7.83
2018-10-16T20:05:40.643Z,7.70
2018-10-16T20:07:42.613Z,8.20
2018-10-16T20:09:44.592Z,8.80
2018-10-16T20:11:46.627Z,7.65
2018-10-16T20:13:49.009Z,8.60
2018-10-16T20:15:51.061Z,8.70
2018-10-16T20:17:53.062Z,8.05
2018-10-16T20:19:55.036Z,8.28
2018-10-16T20:21:57.081Z,7.65
2018-10-16T20:23:59.078Z,8.08
2018-10-16T20:26:01.069Z,7.72
2018-10-16T20:28:03.073Z,7.60
2018-10-16T20:30:05.092Z,7.87
2018-10-16T20:32:07.088Z,7.92
2018-10-16T20:34:09.113Z,7.95
2018-10-16T20:36:11.180Z,7.45
2018-10-16T20:38:13.167Z,7.58
2018-10-16T20:40:15.124Z,7.40
2018-10-16T20:42:17.183Z,7.80
2018-10-16T20:44:19.174Z,7.65
2018-10-16T20:46:21.132Z,7.62
2018-10-16T20:48:23.154Z,7.85
2018-10-16T20:50:25.149Z,7.33
2018-10-16T20:52:27.114Z,7.60
2018-10-16T20:54:29.127Z,7.55
2018-10-16T20:56:31.129Z,7.75
2018-10-16T20:58:33.127Z,8.15
2018-10-16T21:00:35.147Z,6.87
2018-10-16T21:02:37.132Z,7.22
2018-10-16T21:04:39.197Z,7.33
2018-10-16T21:06:41.378Z,8.00
2018-10-16T21:08:43.449Z,7.75
2018-10-16T21:10:45.460Z,7.70
2018-10-16T21:12:47.444Z,7.50
2018-10-16T21:14:49.441Z,6.70
2018-10-16T21:16:51.427Z,7.80
2018-10-16T21:18:53.417Z,7.25
2018-10-16T21:20:55.375Z,7.03
2018-10-16T21:22:57.381Z,8.23
2018-10-16T21:24:59.655Z,7.33
2018-10-16T21:27:01.606Z,7.62
2018-10-16T21:29:03.619Z,7.35
2018-10-16T21:31:05.687Z,7.95
2018-10-16T21:33:07.901Z,7.45
2018-10-16T21:35:09.951Z,8.05
2018-10-16T21:37:11.915Z,7.67
2018-10-16T21:39:13.899Z,8.43
2018-10-16T21:41:15.914Z,8.03
2018-10-16T21:43:17.881Z,7.53
2018-10-16T21:45:19.904Z,7.87
2018-10-16T21:47:21.946Z,7.55
2018-10-16T21:49:24.134Z,8.18
2018-10-16T21:51:26.110Z,7.60
2018-10-16T21:53:28.080Z,7.30
2018-10-16T21:55:30.087Z,7.28
2018-10-16T21:57:32.077Z,7.83
2018-10-16T21:59:34.182Z,7.62
2018-10-16T22:01:36.090Z,7.87
2018-10-16T22:03:38.167Z,8.15
2018-10-16T22:05:40.134Z,7.33
2018-10-16T22:07:42.177Z,7.17
2018-10-16T22:09:44.176Z,7.85
2018-10-16T22:11:46.160Z,7.55
2018-10-16T22:13:48.169Z,7.67
2018-10-16T22:15:50.140Z,7.42
2018-10-16T22:17:52.144Z,6.92
2018-10-16T22:19:54.159Z,6.17
2018-10-16T22:21:56.161Z,7.00
2018-10-16T22:23:58.143Z,6.92
2018-10-16T22:26:00.168Z,7.83
2018-10-16T22:28:02.172Z,7.25
2018-10-16T22:30:04.188Z,6.90
2018-10-16T22:32:06.178Z,6.65
2018-10-16T22:34:08.173Z,6.90
2018-10-16T22:36:10.202Z,6.78
2018-10-16T22:38:12.197Z,6.62
2018-10-16T22:40:14.184Z,6.80
2018-10-16T22:42:16.218Z,7.17
2018-10-16T22:44:18.185Z,6.85
2018-10-16T22:46:20.169Z,7.05
2018-10-16T22:48:22.183Z,7.12
2018-10-16T22:50:24.189Z,6.90
2018-10-16T22:52:26.183Z,7.08
2018-10-16T22:54:28.188Z,6.95
2018-10-16T22:56:30.202Z,6.28
2018-10-16T22:58:32.177Z,7.37
2018-10-16T23:00:34.175Z,6.30
2018-10-16T23:02:36.177Z,6.75
2018-10-16T23:04:38.162Z,6.60
2018-10-16T23:06:40.146Z,5.95
2018-10-16T23:08:42.153Z,7.40
2018-10-16T23:10:44.138Z,6.50
2018-10-16T23:12:46.135Z,6.30
2018-10-16T23:14:48.146Z,6.60
2018-10-16T23:16:50.116Z,6.53
2018-10-16T23:18:52.137Z,6.75
2018-10-16T23:20:54.452Z,6.80
2018-10-16T23:22:56.462Z,6.83
2018-10-16T23:24:58.400Z,6.53
2018-10-16T23:27:00.764Z,6.92
2018-10-16T23:29:02.803Z,6.75
2018-10-16T23:31:04.743Z,6.90
2018-10-16T23:33:06.999Z,6.42
2018-10-16T23:35:08.978Z,6.95
2018-10-16T23:37:11.003Z,7.35
2018-10-16T23:39:12.918Z,6.97
2018-10-16T23:41:14.980Z,6.83
2018-10-16T23:43:16.959Z,6.85
2018-10-16T23:45:18.899Z,6.80
2018-10-16T23:47:20.914Z,6.40
2018-10-16T23:49:22.888Z,6.90
2018-10-16T23:51:24.877Z,6.80
2018-10-16T23:53:26.875Z,6.25
2018-10-16T23:55:28.876Z,6.25
2018-10-16T23:57:30.843Z,7.08
2018-10-16T23:59:32.847Z,6.47
